createdAt,value
2022-11-18T00:02:17.308Z,7.15
2022-11-18T00:07:21.097Z,8.68
2022-11-18T00:12:23.412Z,7.45
2022-11-18T00:17:25.688Z,7.30
2022-11-18T00:22:30.130Z,7.82
2022-11-18T00:27:32.816Z,9.77
2022-11-18T00:32:35.045Z,9.10
2022-11-18T00:37:38.898Z,10.23
2022-11-18T00:42:41.144Z,9.25
2022-11-18T00:47:43.409Z,9.80
2022-11-18T00:52:47.571Z,11.52
2022-11-18T00:57:49.814Z,11.68
2022-11-18T01:02:53.205Z,12.27
2022-11-18T01:07:57.025Z,11.27
2022-11-18T01:12:59.378Z,11.63
2022-11-18T01:18:01.675Z,10.23
2022-11-18T01:23:05.544Z,11.35
2022-11-18T01:28:08.095Z,10.20
2022-11-18T01:33:10.382Z,12.60
2022-11-18T01:38:14.899Z,13.63
2022-11-18T01:43:20.222Z,12.65
2022-11-18T01:48:25.996Z,15.52
2022-11-18T01:53:34.057Z,11.10
2022-11-18T01:58:40.249Z,12.65
2022-11-18T02:03:43.740Z,11.82
2022-11-18T02:08:48.325Z,12.30
2022-11-18T02:13:50.629Z,10.02
2022-11-18T02:18:59.612Z,11.57
2022-11-18T02:24:32.075Z,13.07
2022-11-18T02:29:42.676Z,12.60
2022-11-18T02:34:51.395Z,11.63
2022-11-18T02:39:58.345Z,13.00
2022-11-18T02:45:06.182Z,12.52
2022-11-18T02:50:11.819Z,16.50
2022-11-18T02:55:15.647Z,13.57
2022-11-18T03:00:19.507Z,13.43
2022-11-18T03:05:27.550Z,16.92
2022-11-18T03:10:39.681Z,16.63
2022-11-18T03:15:50.352Z,17.38
2022-11-18T03:20:58.794Z,16.15
2022-11-18T03:26:05.090Z,11.45
2022-11-18T03:31:14.778Z,12.93
2022-11-18T03:36:18.620Z,12.07
2022-11-18T03:41:24.182Z,12.52
2022-11-18T03:46:36.469Z,12.32
2022-11-18T03:51:43.016Z,11.50
2022-11-18T03:56:54.098Z,12.30
2022-11-18T04:02:04.475Z,12.23
2022-11-18T04:07:20.167Z,11.88
2022-11-18T04:12:25.256Z,9.95
2022-11-18T04:17:31.380Z,12.85
2022-11-18T04:22:35.690Z,12.23
2022-11-18T04:27:37.985Z,12.30
2022-11-18T04:32:41.956Z,14.15
2022-11-18T04:37:44.304Z,13.75
2022-11-18T04:42:46.536Z,15.60
2022-11-18T04:47:50.272Z,16.90
2022-11-18T04:52:52.543Z,13.10
2022-11-18T04:57:54.767Z,17.65
2022-11-18T05:02:58.553Z,20.30
2022-11-18T05:08:00.876Z,20.02
2022-11-18T05:13:03.138Z,18.38
2022-11-18T05:18:07.033Z,17.13
2022-11-18T05:23:09.392Z,21.20
2022-11-18T05:28:11.716Z,22.40
2022-11-18T05:33:15.443Z,21.70
2022-11-18T05:38:17.648Z,21.77
2022-11-18T05:43:20.012Z,21.58
2022-11-18T05:48:24.305Z,21.63
2022-11-18T05:53:26.621Z,21.75
2022-11-18T05:58:28.810Z,24.75
2022-11-18T06:03:36.866Z,21.65
2022-11-18T06:08:43.246Z,22.75
2022-11-18T06:13:50.422Z,23.00
2022-11-18T06:23:56.798Z,18.50
2022-11-18T06:28:59.300Z,24.58
2022-11-18T06:34:03.252Z,21.35
2022-11-18T06:39:06.732Z,20.73
2022-11-18T06:44:11.515Z,20.52
2022-11-18T06:49:15.374Z,22.45
2022-11-18T06:54:18.177Z,23.85
2022-11-18T06:59:20.606Z,24.70
2022-11-18T07:04:24.355Z,20.77
2022-11-18T07:09:26.694Z,22.48
2022-11-18T07:14:29.287Z,22.02
2022-11-18T07:19:35.910Z,21.08
2022-11-18T07:24:38.602Z,19.88
2022-11-18T07:29:40.881Z,24.38
2022-11-18T07:34:44.613Z,20.67
2022-11-18T07:39:46.852Z,20.80
2022-11-18T07:44:49.119Z,18.67
2022-11-18T07:49:52.773Z,21.88
2022-11-18T07:54:55.133Z,20.15
2022-11-18T07:59:57.779Z,21.77
2022-11-18T08:05:01.572Z,19.67
2022-11-18T08:10:04.353Z,20.48
2022-11-18T08:15:07.941Z,21.60
2022-11-18T08:20:12.464Z,19.83
2022-11-18T08:25:14.802Z,20.80
2022-11-18T08:30:18.243Z,18.20
2022-11-18T08:35:23.342Z,18.75
2022-11-18T08:40:26.855Z,24.17
2022-11-18T08:45:29.105Z,19.95
2022-11-18T08:50:33.253Z,21.13
2022-11-18T08:55:35.617Z,17.80
2022-11-18T09:00:38.968Z,19.83
2022-11-18T09:05:42.591Z,19.85
2022-11-18T09:10:44.881Z,22.50
2022-11-18T09:15:48.424Z,21.13
2022-11-18T09:20:57.324Z,23.52
2022-11-18T09:25:59.961Z,22.27
2022-11-18T09:31:05.214Z,19.58
2022-11-18T09:36:14.075Z,20.48
2022-11-18T09:41:45.953Z,20.25
2022-11-18T09:47:00.683Z,22.90
2022-11-18T09:52:10.559Z,21.67
2022-11-18T09:57:15.650Z,25.33
2022-11-18T10:02:41.619Z,23.52
2022-11-18T10:07:56.575Z,23.67
2022-11-18T10:13:09.091Z,27.85
2022-11-18T10:18:59.194Z,24.10
2022-11-18T10:23:53.220Z,21.88
2022-11-18T10:28:55.561Z,25.80
2022-11-18T10:34:01.560Z,28.40
2022-11-18T10:39:12.026Z,29.70
2022-11-18T10:44:34.770Z,28.17
2022-11-18T10:49:39.517Z,26.10
2022-11-18T10:54:43.653Z,31.20
2022-11-18T10:59:49.557Z,30.75
2022-11-18T11:04:53.744Z,32.22
2022-11-18T11:10:20.176Z,31.58
2022-11-18T11:15:27.956Z,32.42
2022-11-18T11:20:30.347Z,34.95
2022-11-18T11:31:15.492Z,33.30
2022-11-18T11:36:31.344Z,31.25
2022-11-18T11:41:44.818Z,31.20
2022-11-18T11:47:00.481Z,33.17
2022-11-18T11:52:11.194Z,33.42
2022-11-18T11:57:23.595Z,32.78
2022-11-18T12:02:57.038Z,27.38
2022-11-18T12:08:01.334Z,30.13
2022-11-18T12:13:36.196Z,26.05
2022-11-18T12:18:43.912Z,26.08
2022-11-18T12:24:21.228Z,30.38
2022-11-18T12:29:26.628Z,22.77
2022-11-18T12:34:34.824Z,26.45
2022-11-18T12:39:59.249Z,23.85
2022-11-18T12:45:52.978Z,24.52
2022-11-18T12:50:56.941Z,22.13
2022-11-18T12:55:59.482Z,21.38
2022-11-18T13:01:08.101Z,21.95
2022-11-18T13:06:23.303Z,21.02
2022-11-18T13:11:27.337Z,22.73
2022-11-18T13:16:35.524Z,21.35
2022-11-18T13:21:40.227Z,20.27
2022-11-18T13:26:44.153Z,23.85
2022-11-18T13:32:01.269Z,21.80
2022-11-18T13:42:13.802Z,28.88
2022-11-18T13:47:29.939Z,28.25
2022-11-18T13:52:38.661Z,25.52
2022-11-18T13:57:59.945Z,28.30
2022-11-18T14:03:18.810Z,24.38
2022-11-18T14:08:29.073Z,27.05
2022-11-18T14:13:34.652Z,25.83
2022-11-18T14:18:45.100Z,27.08
2022-11-18T14:23:47.355Z,25.20
2022-11-18T14:28:56.081Z,26.55
2022-11-18T14:34:17.964Z,25.67
2022-11-18T14:39:27.529Z,27.42
2022-11-18T14:44:30.015Z,23.42
2022-11-18T14:49:33.720Z,25.17
2022-11-18T14:54:36.431Z,25.85
2022-11-18T14:59:38.843Z,26.10
2022-11-18T15:04:42.525Z,25.58
2022-11-18T15:09:45.028Z,26.90
2022-11-18T15:14:48.412Z,26.58
2022-11-18T15:19:52.090Z,24.52
2022-11-18T15:24:54.590Z,28.70
2022-11-18T15:30:01.515Z,17.60
2022-11-18T15:35:07.219Z,25.40
2022-11-18T15:40:09.855Z,23.25
2022-11-18T15:45:12.137Z,23.58
2022-11-18T15:50:16.712Z,22.80
2022-11-18T15:55:18.930Z,22.08
2022-11-18T16:00:21.422Z,20.85
2022-11-18T16:05:25.134Z,21.25
2022-11-18T16:10:27.450Z,25.70
2022-11-18T16:15:29.669Z,16.70
2022-11-18T16:20:33.423Z,17.73
2022-11-18T16:25:35.925Z,17.58
2022-11-18T16:30:38.281Z,17.33
2022-11-18T16:35:47.916Z,15.55
2022-11-18T16:40:55.476Z,15.52
2022-11-18T16:46:01.212Z,15.60
2022-11-18T16:51:26.997Z,15.55
2022-11-18T16:56:31.949Z,12.63
2022-11-18T17:01:37.942Z,14.27
2022-11-18T17:06:42.721Z,11.67
2022-11-18T17:11:45.154Z,12.05
2022-11-18T17:16:47.950Z,11.18
2022-11-18T17:21:56.803Z,10.43
2022-11-18T17:26:59.139Z,10.40
2022-11-18T17:32:01.525Z,8.80
2022-11-18T17:37:07.187Z,8.95
2022-11-18T17:42:09.875Z,8.23
2022-11-18T17:47:12.198Z,8.90
2022-11-18T17:52:16.096Z,5.93
2022-11-18T17:57:18.397Z,7.47
2022-11-18T18:02:23.445Z,8.13
2022-11-18T18:07:30.296Z,6.45
2022-11-18T18:12:32.710Z,8.70
2022-11-18T18:17:35.111Z,6.25
2022-11-18T18:22:39.117Z,5.45
2022-11-18T18:27:41.418Z,9.82
2022-11-18T18:32:46.904Z,6.18
2022-11-18T18:37:53.825Z,7.80
2022-11-18T18:42:56.589Z,7.18
2022-11-18T18:48:02.767Z,6.50
2022-11-18T18:53:06.473Z,11.27
2022-11-18T18:58:08.927Z,6.70
2022-11-18T19:03:11.270Z,5.53
2022-11-18T19:08:14.949Z,4.07
2022-11-18T19:13:17.193Z,4.97
2022-11-18T19:18:19.497Z,4.72
2022-11-18T19:23:25.509Z,7.03
2022-11-18T19:28:27.972Z,4.57
2022-11-18T19:33:30.203Z,4.43
2022-11-18T19:38:33.912Z,4.45
2022-11-18T19:43:37.092Z,4.57
2022-11-18T19:48:39.303Z,5.05
2022-11-18T19:53:43.591Z,4.30
2022-11-18T19:58:47.272Z,3.92
2022-11-18T20:03:52.344Z,5.95
2022-11-18T20:08:57.070Z,5.28
2022-11-18T20:13:59.316Z,4.90
2022-11-18T20:19:09.353Z,6.03
2022-11-18T20:24:18.206Z,4.80
2022-11-18T20:29:20.879Z,7.05
2022-11-18T20:34:23.423Z,6.32
2022-11-18T20:39:27.163Z,6.13
2022-11-18T20:44:29.441Z,7.57
2022-11-18T20:49:31.640Z,5.45
2022-11-18T20:54:35.308Z,6.82
2022-11-18T20:59:37.610Z,5.97
2022-11-18T21:04:39.859Z,5.22
2022-11-18T21:09:43.798Z,6.90
2022-11-18T21:14:46.841Z,6.43
2022-11-18T21:19:49.563Z,6.53
2022-11-18T21:24:53.445Z,6.50
2022-11-18T21:29:56.611Z,7.60
2022-11-18T21:34:58.910Z,5.50
2022-11-18T21:40:02.607Z,6.03
2022-11-18T21:45:05.724Z,7.32
2022-11-18T21:50:08.804Z,7.70
2022-11-18T21:55:12.628Z,8.27
2022-11-18T22:00:15.646Z,7.78
2022-11-18T22:05:17.923Z,6.47
2022-11-18T22:10:21.588Z,5.65
2022-11-18T22:15:23.938Z,7.15
2022-11-18T22:20:26.339Z,6.22
2022-11-18T22:25:30.106Z,6.93
2022-11-18T22:30:32.342Z,7.13
2022-11-18T22:35:34.546Z,8.57
2022-11-18T22:40:38.428Z,7.40
2022-11-18T22:45:40.733Z,8.57
2022-11-18T22:50:43.094Z,6.40
2022-11-18T22:55:46.788Z,6.22
2022-11-18T23:00:49.043Z,7.80
2022-11-18T23:05:51.224Z,6.43
2022-11-18T23:11:01.530Z,7.45
2022-11-18T23:16:03.907Z,8.82
2022-11-18T23:21:06.402Z,8.13
2022-11-18T23:26:12.112Z,7.55
2022-11-18T23:31:16.093Z,8.60
2022-11-18T23:36:20.131Z,7.45
2022-11-18T23:41:23.752Z,10.90
2022-11-18T23:46:25.954Z,10.52
2022-11-18T23:51:28.211Z,10.32
2022-11-18T23:56:37.503Z,13.07
